sensor_id;sensor_type;location;lat;lon;timestamp;temperature;humidity
39371;DHT22;25099;51.946;4.838;2023-07-29T00:01:50;19.30;99.90
39371;DHT22;25099;51.946;4.838;2023-07-29T00:04:19;19.30;99.90
39371;DHT22;25099;51.946;4.838;2023-07-29T00:06:54;20.10;99.90
39371;DHT22;25099;51.946;4.838;2023-07-29T00:09:29;19.10;99.90
39371;DHT22;25099;51.946;4.838;2023-07-29T00:12:03;19.30;99.90
39371;DHT22;25099;51.946;4.838;2023-07-29T00:14:32;19.30;99.90
39371;DHT22;25099;51.946;4.838;2023-07-29T00:17:04;19.10;99.90
39371;DHT22;25099;51.946;4.838;2023-07-29T00:19:39;19.80;99.90
39371;DHT22;25099;51.946;4.838;2023-07-29T00:22:10;19.30;99.90
39371;DHT22;25099;51.946;4.838;2023-07-29T00:24:40;19.30;99.90
39371;DHT22;25099;51.946;4.838;2023-07-29T00:27:25;19.30;99.90
39371;DHT22;25099;51.946;4.838;2023-07-29T00:29:51;19.30;99.90
39371;DHT22;25099;51.946;4.838;2023-07-29T00:32:22;19.30;99.90
39371;DHT22;25099;51.946;4.838;2023-07-29T00:35:03;19.30;99.90
39371;DHT22;25099;51.946;4.838;2023-07-29T00:37:29;19.20;99.90
39371;DHT22;25099;51.946;4.838;2023-07-29T00:40:15;19.20;99.90
39371;DHT22;25099;51.946;4.838;2023-07-29T00:42:42;19.20;99.90
39371;DHT22;25099;51.946;4.838;2023-07-29T00:45:09;19.20;99.90
39371;DHT22;25099;51.946;4.838;2023-07-29T00:47:37;19.10;99.90
39371;DHT22;25099;51.946;4.838;2023-07-29T00:50:09;19.10;99.90
39371;DHT22;25099;51.946;4.838;2023-07-29T00:52:45;19.10;99.90
39371;DHT22;25099;51.946;4.838;2023-07-29T00:55:11;19.70;99.90
39371;DHT22;25099;51.946;4.838;2023-07-29T00:57:46;19.10;99.90
39371;DHT22;25099;51.946;4.838;2023-07-29T01:00:16;19.00;99.90
39371;DHT22;25099;51.946;4.838;2023-07-29T01:02:48;19.00;99.90
39371;DHT22;25099;51.946;4.838;2023-07-29T01:05:20;19.40;99.90
39371;DHT22;25099;51.946;4.838;2023-07-29T01:11:03;19.00;99.90
39371;DHT22;25099;51.946;4.838;2023-07-29T01:13:58;19.20;99.90
39371;DHT22;25099;51.946;4.838;2023-07-29T01:16:33;18.90;99.90
39371;DHT22;25099;51.946;4.838;2023-07-29T01:19:06;18.90;99.90
39371;DHT22;25099;51.946;4.838;2023-07-29T01:21:59;18.60;99.90
39371;DHT22;25099;51.946;4.838;2023-07-29T01:24:31;18.40;99.90
39371;DHT22;25099;51.946;4.838;2023-07-29T01:26:59;19.00;99.90
39371;DHT22;25099;51.946;4.838;2023-07-29T01:29:30;18.80;99.90
39371;DHT22;25099;51.946;4.838;2023-07-29T01:32:06;19.70;99.90
39371;DHT22;25099;51.946;4.838;2023-07-29T01:34:39;18.80;99.90
39371;DHT22;25099;51.946;4.838;2023-07-29T01:37:09;19.30;99.90
39371;DHT22;25099;51.946;4.838;2023-07-29T01:39:37;18.70;99.90
39371;DHT22;25099;51.946;4.838;2023-07-29T01:42:03;18.80;99.90
39371;DHT22;25099;51.946;4.838;2023-07-29T01:44:38;18.70;99.90
39371;DHT22;25099;51.946;4.838;2023-07-29T01:47:12;18.70;99.90
39371;DHT22;25099;51.946;4.838;2023-07-29T01:49:38;18.70;99.90
39371;DHT22;25099;51.946;4.838;2023-07-29T01:52:18;20.30;99.90
39371;DHT22;25099;51.946;4.838;2023-07-29T01:54:47;19.40;99.90
39371;DHT22;25099;51.946;4.838;2023-07-29T01:57:16;18.60;99.90
39371;DHT22;25099;51.946;4.838;2023-07-29T02:02:18;18.60;99.90
39371;DHT22;25099;51.946;4.838;2023-07-29T02:04:50;18.60;99.90
39371;DHT22;25099;51.946;4.838;2023-07-29T02:07:20;18.60;99.90
39371;DHT22;25099;51.946;4.838;2023-07-29T02:09:48;18.60;99.90
39371;DHT22;25099;51.946;4.838;2023-07-29T02:12:22;18.50;99.90
39371;DHT22;25099;51.946;4.838;2023-07-29T02:14:51;18.60;99.90
39371;DHT22;25099;51.946;4.838;2023-07-29T02:17:22;18.60;99.90
39371;DHT22;25099;51.946;4.838;2023-07-29T02:19:48;18.60;99.90
39371;DHT22;25099;51.946;4.838;2023-07-29T02:22:14;19.50;99.90
39371;DHT22;25099;51.946;4.838;2023-07-29T02:24:43;18.70;99.90
39371;DHT22;25099;51.946;4.838;2023-07-29T02:27:28;18.70;99.90
39371;DHT22;25099;51.946;4.838;2023-07-29T02:29:54;18.60;99.90
39371;DHT22;25099;51.946;4.838;2023-07-29T02:32:27;18.60;99.90
39371;DHT22;25099;51.946;4.838;2023-07-29T02:35:18;18.60;99.90
39371;DHT22;25099;51.946;4.838;2023-07-29T02:37:44;18.20;99.90
39371;DHT22;25099;51.946;4.838;2023-07-29T02:40:10;18.70;99.90
39371;DHT22;25099;51.946;4.838;2023-07-29T02:42:36;18.60;99.90
39371;DHT22;25099;51.946;4.838;2023-07-29T02:45:09;18.60;99.90
39371;DHT22;25099;51.946;4.838;2023-07-29T02:47:39;18.60;99.90
39371;DHT22;25099;51.946;4.838;2023-07-29T02:50:08;18.60;99.90
39371;DHT22;25099;51.946;4.838;2023-07-29T02:52:40;18.60;99.90
39371;DHT22;25099;51.946;4.838;2023-07-29T02:55:08;18.50;99.90
39371;DHT22;25099;51.946;4.838;2023-07-29T02:57:40;18.50;99.90
39371;DHT22;25099;51.946;4.838;2023-07-29T03:00:15;18.50;99.90
39371;DHT22;25099;51.946;4.838;2023-07-29T03:02:46;18.50;99.90
39371;DHT22;25099;51.946;4.838;2023-07-29T03:05:30;18.50;99.90
39371;DHT22;25099;51.946;4.838;2023-07-29T03:08:01;18.10;99.90
39371;DHT22;25099;51.946;4.838;2023-07-29T03:10:37;18.40;99.90
39371;DHT22;25099;51.946;4.838;2023-07-29T03:13:05;19.20;99.90
39371;DHT22;25099;51.946;4.838;2023-07-29T03:15:37;18.30;99.90
39371;DHT22;25099;51.946;4.838;2023-07-29T03:18:17;18.30;99.90
39371;DHT22;25099;51.946;4.838;2023-07-29T03:20:48;17.50;99.90
39371;DHT22;25099;51.946;4.838;2023-07-29T03:23:17;18.40;99.90
39371;DHT22;25099;51.946;4.838;2023-07-29T03:25:49;18.80;99.90
39371;DHT22;25099;51.946;4.838;2023-07-29T03:28:27;18.60;99.90
39371;DHT22;25099;51.946;4.838;2023-07-29T03:30:56;18.20;99.90
39371;DHT22;25099;51.946;4.838;2023-07-29T03:33:26;18.10;99.90
39371;DHT22;25099;51.946;4.838;2023-07-29T03:36:01;18.10;99.90
39371;DHT22;25099;51.946;4.838;2023-07-29T03:38:32;18.10;99.90
39371;DHT22;25099;51.946;4.838;2023-07-29T03:41:06;18.10;99.90
39371;DHT22;25099;51.946;4.838;2023-07-29T03:43:34;18.10;99.90
39371;DHT22;25099;51.946;4.838;2023-07-29T03:46:05;19.00;99.90
39371;DHT22;25099;51.946;4.838;2023-07-29T03:48:40;18.10;99.90
39371;DHT22;25099;51.946;4.838;2023-07-29T03:51:12;18.00;99.90
39371;DHT22;25099;51.946;4.838;2023-07-29T03:53:43;18.00;99.90
39371;DHT22;25099;51.946;4.838;2023-07-29T03:56:21;18.00;99.90
39371;DHT22;25099;51.946;4.838;2023-07-29T03:58:49;18.00;99.90
39371;DHT22;25099;51.946;4.838;2023-07-29T04:01:21;18.00;99.90
39371;DHT22;25099;51.946;4.838;2023-07-29T04:03:56;19.30;99.90
39371;DHT22;25099;51.946;4.838;2023-07-29T04:06:33;18.00;99.90
39371;DHT22;25099;51.946;4.838;2023-07-29T04:09:05;19.00;99.90
39371;DHT22;25099;51.946;4.838;2023-07-29T04:11:33;18.00;99.90
39371;DHT22;25099;51.946;4.838;2023-07-29T04:14:11;18.00;99.90
39371;DHT22;25099;51.946;4.838;2023-07-29T04:16:43;18.00;99.90
39371;DHT22;25099;51.946;4.838;2023-07-29T04:19:15;18.00;99.90
39371;DHT22;25099;51.946;4.838;2023-07-29T04:21:50;18.10;99.90
39371;DHT22;25099;51.946;4.838;2023-07-29T04:24:25;19.10;99.90
39371;DHT22;25099;51.946;4.838;2023-07-29T04:26:53;18.00;99.90
39371;DHT22;25099;51.946;4.838;2023-07-29T04:29:25;18.10;99.90
39371;DHT22;25099;51.946;4.838;2023-07-29T04:31:54;18.80;99.90
39371;DHT22;25099;51.946;4.838;2023-07-29T04:34:28;18.00;99.90
39371;DHT22;25099;51.946;4.838;2023-07-29T04:36:54;17.70;99.90
39371;DHT22;25099;51.946;4.838;2023-07-29T04:39:20;18.10;99.90
39371;DHT22;25099;51.946;4.838;2023-07-29T04:41:45;18.10;99.90
39371;DHT22;25099;51.946;4.838;2023-07-29T04:44:20;18.60;99.90
39371;DHT22;25099;51.946;4.838;2023-07-29T04:46:48;18.40;99.90
39371;DHT22;25099;51.946;4.838;2023-07-29T04:49:26;18.10;99.90
39371;DHT22;25099;51.946;4.838;2023-07-29T04:51:57;18.10;99.90
39371;DHT22;25099;51.946;4.838;2023-07-29T04:54:34;18.90;99.90
39371;DHT22;25099;51.946;4.838;2023-07-29T04:57:10;18.00;99.90
39371;DHT22;25099;51.946;4.838;2023-07-29T04:59:41;17.60;99.90
39371;DHT22;25099;51.946;4.838;2023-07-29T05:02:25;17.40;99.90
39371;DHT22;25099;51.946;4.838;2023-07-29T05:04:50;18.20;99.90
39371;DHT22;25099;51.946;4.838;2023-07-29T05:07:22;17.90;99.90
39371;DHT22;25099;51.946;4.838;2023-07-29T05:09:53;17.70;99.90
39371;DHT22;25099;51.946;4.838;2023-07-29T05:12:31;17.90;99.90
39371;DHT22;25099;51.946;4.838;2023-07-29T05:14:58;19.10;99.90
39371;DHT22;25099;51.946;4.838;2023-07-29T05:17:37;18.00;99.90
39371;DHT22;25099;51.946;4.838;2023-07-29T05:20:04;18.00;99.90
39371;DHT22;25099;51.946;4.838;2023-07-29T05:22:30;17.70;99.90
39371;DHT22;25099;51.946;4.838;2023-07-29T05:24:56;18.00;99.90
39371;DHT22;25099;51.946;4.838;2023-07-29T05:27:33;17.90;99.90
39371;DHT22;25099;51.946;4.838;2023-07-29T05:29:58;18.00;99.90
39371;DHT22;25099;51.946;4.838;2023-07-29T05:32:30;18.50;99.90
39371;DHT22;25099;51.946;4.838;2023-07-29T05:35:06;18.20;99.90
39371;DHT22;25099;51.946;4.838;2023-07-29T05:37:40;18.10;99.90
39371;DHT22;25099;51.946;4.838;2023-07-29T05:40:06;18.10;99.90
39371;DHT22;25099;51.946;4.838;2023-07-29T05:42:35;18.10;99.90
39371;DHT22;25099;51.946;4.838;2023-07-29T05:45:02;18.10;99.90
39371;DHT22;25099;51.946;4.838;2023-07-29T05:47:29;18.20;99.90
39371;DHT22;25099;51.946;4.838;2023-07-29T05:49:54;18.20;99.90
39371;DHT22;25099;51.946;4.838;2023-07-29T05:52:25;18.30;99.90
39371;DHT22;25099;51.946;4.838;2023-07-29T05:55:00;18.30;99.90
39371;DHT22;25099;51.946;4.838;2023-07-29T05:57:35;18.20;99.90
39371;DHT22;25099;51.946;4.838;2023-07-29T06:00:10;18.70;99.90
39371;DHT22;25099;51.946;4.838;2023-07-29T06:02:36;18.10;99.90
39371;DHT22;25099;51.946;4.838;2023-07-29T06:05:02;18.20;99.90
39371;DHT22;25099;51.946;4.838;2023-07-29T06:07:29;18.20;99.90
39371;DHT22;25099;51.946;4.838;2023-07-29T06:09:56;18.60;99.90
39371;DHT22;25099;51.946;4.838;2023-07-29T06:12:23;19.40;99.90
39371;DHT22;25099;51.946;4.838;2023-07-29T06:14:52;19.20;99.90
39371;DHT22;25099;51.946;4.838;2023-07-29T06:17:20;18.20;99.90
39371;DHT22;25099;51.946;4.838;2023-07-29T06:19:46;18.20;99.90
39371;DHT22;25099;51.946;4.838;2023-07-29T06:22:20;19.00;99.90
39371;DHT22;25099;51.946;4.838;2023-07-29T06:27:22;18.20;99.90
39371;DHT22;25099;51.946;4.838;2023-07-29T06:29:55;18.20;99.90
39371;DHT22;25099;51.946;4.838;2023-07-29T06:32:20;18.90;99.90
39371;DHT22;25099;51.946;4.838;2023-07-29T06:34:58;18.50;99.90
39371;DHT22;25099;51.946;4.838;2023-07-29T06:37:30;18.30;99.90
39371;DHT22;25099;51.946;4.838;2023-07-29T06:39:55;18.30;99.90
39371;DHT22;25099;51.946;4.838;2023-07-29T06:42:21;18.30;99.90
39371;DHT22;25099;51.946;4.838;2023-07-29T06:44:49;18.30;99.90
39371;DHT22;25099;51.946;4.838;2023-07-29T06:47:27;18.90;99.90
39371;DHT22;25099;51.946;4.838;2023-07-29T06:50:08;18.40;99.90
39371;DHT22;25099;51.946;4.838;2023-07-29T06:52:36;18.40;99.90
39371;DHT22;25099;51.946;4.838;2023-07-29T06:55:09;18.40;99.90
39371;DHT22;25099;51.946;4.838;2023-07-29T06:57:38;19.00;99.90
39371;DHT22;25099;51.946;4.838;2023-07-29T07:00:09;18.50;99.90
39371;DHT22;25099;51.946;4.838;2023-07-29T07:02:47;18.50;99.90
39371;DHT22;25099;51.946;4.838;2023-07-29T07:05:28;18.80;99.90
39371;DHT22;25099;51.946;4.838;2023-07-29T07:07:54;20.10;99.90
39371;DHT22;25099;51.946;4.838;2023-07-29T07:10:19;19.00;99.90
39371;DHT22;25099;51.946;4.838;2023-07-29T07:12:48;18.80;99.90
39371;DHT22;25099;51.946;4.838;2023-07-29T07:15:14;18.30;99.90
39371;DHT22;25099;51.946;4.838;2023-07-29T07:17:48;18.60;99.90
39371;DHT22;25099;51.946;4.838;2023-07-29T07:20:14;18.60;99.90
39371;DHT22;25099;51.946;4.838;2023-07-29T07:22:40;18.70;99.90
39371;DHT22;25099;51.946;4.838;2023-07-29T07:25:06;19.30;99.90
39371;DHT22;25099;51.946;4.838;2023-07-29T07:27:32;18.70;99.90
39371;DHT22;25099;51.946;4.838;2023-07-29T07:30:03;18.70;99.90
39371;DHT22;25099;51.946;4.838;2023-07-29T07:32:32;18.80;99.90
39371;DHT22;25099;51.946;4.838;2023-07-29T07:35:00;18.90;99.90
39371;DHT22;25099;51.946;4.838;2023-07-29T07:37:26;19.00;99.90
39371;DHT22;25099;51.946;4.838;2023-07-29T07:39:51;19.00;99.90
39371;DHT22;25099;51.946;4.838;2023-07-29T07:42:26;19.00;99.90
39371;DHT22;25099;51.946;4.838;2023-07-29T07:45:03;19.00;99.90
39371;DHT22;25099;51.946;4.838;2023-07-29T07:47:29;19.10;99.90
39371;DHT22;25099;51.946;4.838;2023-07-29T07:49:54;19.10;99.90
39371;DHT22;25099;51.946;4.838;2023-07-29T07:52:20;19.10;99.90
39371;DHT22;25099;51.946;4.838;2023-07-29T07:54:55;19.10;99.90
39371;DHT22;25099;51.946;4.838;2023-07-29T07:57:23;19.10;99.90
39371;DHT22;25099;51.946;4.838;2023-07-29T07:59:54;19.90;99.90
39371;DHT22;25099;51.946;4.838;2023-07-29T08:02:20;19.10;99.90
39371;DHT22;25099;51.946;4.838;2023-07-29T08:04:52;19.20;99.90
39371;DHT22;25099;51.946;4.838;2023-07-29T08:07:26;19.10;99.90
39371;DHT22;25099;51.946;4.838;2023-07-29T08:09:53;19.10;99.90
39371;DHT22;25099;51.946;4.838;2023-07-29T08:12:18;20.00;99.90
39371;DHT22;25099;51.946;4.838;2023-07-29T08:14:45;19.20;99.90
39371;DHT22;25099;51.946;4.838;2023-07-29T08:17:16;19.20;99.90
39371;DHT22;25099;51.946;4.838;2023-07-29T08:19:44;19.10;99.90
39371;DHT22;25099;51.946;4.838;2023-07-29T08:22:09;19.10;99.90
39371;DHT22;25099;51.946;4.838;2023-07-29T08:24:35;19.10;99.90
39371;DHT22;25099;51.946;4.838;2023-07-29T08:27:06;19.20;99.90
39371;DHT22;25099;51.946;4.838;2023-07-29T08:29:31;19.20;99.90
39371;DHT22;25099;51.946;4.838;2023-07-29T08:31:57;19.30;99.90
39371;DHT22;25099;51.946;4.838;2023-07-29T08:34:22;19.30;99.90
39371;DHT22;25099;51.946;4.838;2023-07-29T08:36:48;19.30;99.90
39371;DHT22;25099;51.946;4.838;2023-07-29T08:39:14;19.30;99.90
39371;DHT22;25099;51.946;4.838;2023-07-29T08:42:03;19.30;99.90
39371;DHT22;25099;51.946;4.838;2023-07-29T08:44:42;19.40;99.90
39371;DHT22;25099;51.946;4.838;2023-07-29T08:47:08;19.50;99.90
39371;DHT22;25099;51.946;4.838;2023-07-29T08:49:34;19.40;99.90
39371;DHT22;25099;51.946;4.838;2023-07-29T08:52:01;19.50;99.90
39371;DHT22;25099;51.946;4.838;2023-07-29T08:54:26;19.50;99.90
39371;DHT22;25099;51.946;4.838;2023-07-29T08:56:57;19.50;99.90
39371;DHT22;25099;51.946;4.838;2023-07-29T08:59:25;20.10;99.90
39371;DHT22;25099;51.946;4.838;2023-07-29T09:02:06;20.10;99.90
39371;DHT22;25099;51.946;4.838;2023-07-29T09:04:37;19.70;99.90
39371;DHT22;25099;51.946;4.838;2023-07-29T09:07:12;19.80;99.90
39371;DHT22;25099;51.946;4.838;2023-07-29T09:09:47;20.60;99.90
39371;DHT22;25099;51.946;4.838;2023-07-29T09:12:13;20.60;99.90
39371;DHT22;25099;51.946;4.838;2023-07-29T09:14:57;19.60;99.90
39371;DHT22;25099;51.946;4.838;2023-07-29T09:17:23;20.00;99.90
39371;DHT22;25099;51.946;4.838;2023-07-29T09:19:49;20.00;99.90
39371;DHT22;25099;51.946;4.838;2023-07-29T09:22:21;20.10;99.90
39371;DHT22;25099;51.946;4.838;2023-07-29T09:24:47;20.00;99.90
39371;DHT22;25099;51.946;4.838;2023-07-29T09:27:26;19.90;99.90
39371;DHT22;25099;51.946;4.838;2023-07-29T09:29:53;20.00;99.90
39371;DHT22;25099;51.946;4.838;2023-07-29T09:32:24;20.20;99.90
39371;DHT22;25099;51.946;4.838;2023-07-29T09:34:50;20.00;99.90
39371;DHT22;25099;51.946;4.838;2023-07-29T09:37:25;20.00;99.90
39371;DHT22;25099;51.946;4.838;2023-07-29T09:39:51;19.90;99.90
39371;DHT22;25099;51.946;4.838;2023-07-29T09:42:22;19.90;99.90
39371;DHT22;25099;51.946;4.838;2023-07-29T09:44:51;20.40;99.90
39371;DHT22;25099;51.946;4.838;2023-07-29T09:47:24;19.80;99.90
39371;DHT22;25099;51.946;4.838;2023-07-29T09:49:51;19.80;99.90
39371;DHT22;25099;51.946;4.838;2023-07-29T09:52:22;20.00;99.90
39371;DHT22;25099;51.946;4.838;2023-07-29T09:54:48;19.90;99.90
39371;DHT22;25099;51.946;4.838;2023-07-29T09:57:14;19.90;99.90
39371;DHT22;25099;51.946;4.838;2023-07-29T09:59:41;20.60;99.90
39371;DHT22;25099;51.946;4.838;2023-07-29T10:02:16;20.60;99.90
39371;DHT22;25099;51.946;4.838;2023-07-29T10:04:42;19.70;99.90
39371;DHT22;25099;51.946;4.838;2023-07-29T10:07:11;19.70;99.90
39371;DHT22;25099;51.946;4.838;2023-07-29T10:09:40;19.60;99.90
39371;DHT22;25099;51.946;4.838;2023-07-29T10:12:07;19.80;99.90
39371;DHT22;25099;51.946;4.838;2023-07-29T10:14:33;19.40;99.90
39371;DHT22;25099;51.946;4.838;2023-07-29T10:17:06;19.40;99.90
39371;DHT22;25099;51.946;4.838;2023-07-29T10:19:32;19.40;99.90
39371;DHT22;25099;51.946;4.838;2023-07-29T10:22:00;19.30;99.90
39371;DHT22;25099;51.946;4.838;2023-07-29T10:24:42;19.50;99.90
39371;DHT22;25099;51.946;4.838;2023-07-29T10:27:11;19.40;99.90
39371;DHT22;25099;51.946;4.838;2023-07-29T10:29:49;19.30;99.90
39371;DHT22;25099;51.946;4.838;2023-07-29T10:32:25;19.30;99.90
39371;DHT22;25099;51.946;4.838;2023-07-29T10:35:03;19.30;99.90
39371;DHT22;25099;51.946;4.838;2023-07-29T10:37:29;19.40;99.90
39371;DHT22;25099;51.946;4.838;2023-07-29T10:39:55;19.40;99.90
39371;DHT22;25099;51.946;4.838;2023-07-29T10:42:23;19.40;99.90
39371;DHT22;25099;51.946;4.838;2023-07-29T10:44:50;19.70;99.90
39371;DHT22;25099;51.946;4.838;2023-07-29T10:47:32;20.30;99.90
39371;DHT22;25099;51.946;4.838;2023-07-29T10:49:59;19.30;99.90
39371;DHT22;25099;51.946;4.838;2023-07-29T10:52:29;19.30;99.90
39371;DHT22;25099;51.946;4.838;2023-07-29T10:54:56;20.10;99.90
39371;DHT22;25099;51.946;4.838;2023-07-29T10:57:34;19.30;99.90
39371;DHT22;25099;51.946;4.838;2023-07-29T11:00:01;19.20;99.90
39371;DHT22;25099;51.946;4.838;2023-07-29T11:02:37;19.20;99.90
39371;DHT22;25099;51.946;4.838;2023-07-29T11:05:17;19.20;99.90
39371;DHT22;25099;51.946;4.838;2023-07-29T11:07:47;19.20;99.90
39371;DHT22;25099;51.946;4.838;2023-07-29T11:10:14;19.20;99.90
39371;DHT22;25099;51.946;4.838;2023-07-29T11:12:42;19.40;99.90
39371;DHT22;25099;51.946;4.838;2023-07-29T11:15:15;19.20;99.90
39371;DHT22;25099;51.946;4.838;2023-07-29T11:17:43;19.10;99.90
39371;DHT22;25099;51.946;4.838;2023-07-29T11:20:10;19.20;99.90
39371;DHT22;25099;51.946;4.838;2023-07-29T11:22:55;19.20;99.90
39371;DHT22;25099;51.946;4.838;2023-07-29T11:25:22;19.20;99.90
39371;DHT22;25099;51.946;4.838;2023-07-29T11:27:48;19.30;99.90
39371;DHT22;25099;51.946;4.838;2023-07-29T11:30:16;19.30;99.90
39371;DHT22;25099;51.946;4.838;2023-07-29T11:32:44;19.30;99.90
39371;DHT22;25099;51.946;4.838;2023-07-29T11:35:20;20.10;99.90
39371;DHT22;25099;51.946;4.838;2023-07-29T11:38:01;19.40;99.90
39371;DHT22;25099;51.946;4.838;2023-07-29T11:40:27;19.50;99.90
39371;DHT22;25099;51.946;4.838;2023-07-29T11:42:54;19.60;99.90
39371;DHT22;25099;51.946;4.838;2023-07-29T11:45:21;19.30;99.90
39371;DHT22;25099;51.946;4.838;2023-07-29T11:47:47;19.60;99.90
39371;DHT22;25099;51.946;4.838;2023-07-29T11:50:16;19.80;99.90
39371;DHT22;25099;51.946;4.838;2023-07-29T11:52:43;19.70;99.90
39371;DHT22;25099;51.946;4.838;2023-07-29T11:55:10;19.70;99.90
39371;DHT22;25099;51.946;4.838;2023-07-29T11:57:51;19.70;99.90
39371;DHT22;25099;51.946;4.838;2023-07-29T12:00:17;20.30;99.90
39371;DHT22;25099;51.946;4.838;2023-07-29T12:02:45;19.80;99.90
39371;DHT22;25099;51.946;4.838;2023-07-29T12:05:13;20.10;99.90
39371;DHT22;25099;51.946;4.838;2023-07-29T12:07:48;20.50;99.90
39371;DHT22;25099;51.946;4.838;2023-07-29T12:10:14;19.80;99.90
39371;DHT22;25099;51.946;4.838;2023-07-29T12:12:55;19.80;99.90
39371;DHT22;25099;51.946;4.838;2023-07-29T12:15:27;19.60;99.90
39371;DHT22;25099;51.946;4.838;2023-07-29T12:17:59;19.80;99.90
39371;DHT22;25099;51.946;4.838;2023-07-29T12:20:26;19.80;99.90
39371;DHT22;25099;51.946;4.838;2023-07-29T12:22:58;20.20;99.90
39371;DHT22;25099;51.946;4.838;2023-07-29T12:25:36;19.90;99.90
39371;DHT22;25099;51.946;4.838;2023-07-29T12:28:23;20.00;99.90
39371;DHT22;25099;51.946;4.838;2023-07-29T12:30:56;20.00;99.90
39371;DHT22;25099;51.946;4.838;2023-07-29T12:33:33;20.20;99.90
39371;DHT22;25099;51.946;4.838;2023-07-29T12:35:59;20.20;99.90
39371;DHT22;25099;51.946;4.838;2023-07-29T12:38:28;20.20;99.90
39371;DHT22;25099;51.946;4.838;2023-07-29T12:40:55;20.30;99.90
39371;DHT22;25099;51.946;4.838;2023-07-29T12:43:21;20.30;99.90
39371;DHT22;25099;51.946;4.838;2023-07-29T12:45:49;20.40;99.90
39371;DHT22;25099;51.946;4.838;2023-07-29T12:48:14;20.60;99.90
39371;DHT22;25099;51.946;4.838;2023-07-29T12:50:40;20.50;99.90
39371;DHT22;25099;51.946;4.838;2023-07-29T12:53:07;20.60;99.90
39371;DHT22;25099;51.946;4.838;2023-07-29T12:55:34;20.70;99.90
39371;DHT22;25099;51.946;4.838;2023-07-29T12:58:00;20.70;99.90
39371;DHT22;25099;51.946;4.838;2023-07-29T13:00:26;20.80;99.90
39371;DHT22;25099;51.946;4.838;2023-07-29T13:02:51;20.80;99.90
39371;DHT22;25099;51.946;4.838;2023-07-29T13:05:17;20.90;99.90
39371;DHT22;25099;51.946;4.838;2023-07-29T13:07:43;21.10;99.90
39371;DHT22;25099;51.946;4.838;2023-07-29T13:10:10;21.30;99.90
39371;DHT22;25099;51.946;4.838;2023-07-29T13:12:36;21.00;99.90
39371;DHT22;25099;51.946;4.838;2023-07-29T13:15:02;21.00;99.90
39371;DHT22;25099;51.946;4.838;2023-07-29T13:17:27;21.00;99.90
39371;DHT22;25099;51.946;4.838;2023-07-29T13:19:53;21.00;99.90
39371;DHT22;25099;51.946;4.838;2023-07-29T13:22:20;21.00;99.90
39371;DHT22;25099;51.946;4.838;2023-07-29T13:24:45;21.10;99.90
39371;DHT22;25099;51.946;4.838;2023-07-29T13:27:11;21.60;99.90
39371;DHT22;25099;51.946;4.838;2023-07-29T13:29:37;21.40;99.90
39371;DHT22;25099;51.946;4.838;2023-07-29T13:32:02;21.20;99.90
39371;DHT22;25099;51.946;4.838;2023-07-29T13:34:28;21.30;99.90
39371;DHT22;25099;51.946;4.838;2023-07-29T13:36:54;21.30;99.90
39371;DHT22;25099;51.946;4.838;2023-07-29T13:39:19;21.30;99.90
39371;DHT22;25099;51.946;4.838;2023-07-29T13:41:45;21.80;99.90
39371;DHT22;25099;51.946;4.838;2023-07-29T13:44:10;21.40;99.90
39371;DHT22;25099;51.946;4.838;2023-07-29T13:46:36;21.40;99.90
39371;DHT22;25099;51.946;4.838;2023-07-29T13:49:01;21.40;99.90
39371;DHT22;25099;51.946;4.838;2023-07-29T13:51:28;21.50;99.90
39371;DHT22;25099;51.946;4.838;2023-07-29T13:53:53;21.50;99.90
39371;DHT22;25099;51.946;4.838;2023-07-29T13:56:19;21.50;99.90
39371;DHT22;25099;51.946;4.838;2023-07-29T13:58:45;21.60;99.90
39371;DHT22;25099;51.946;4.838;2023-07-29T14:01:10;21.60;99.90
39371;DHT22;25099;51.946;4.838;2023-07-29T14:03:37;21.60;99.90
39371;DHT22;25099;51.946;4.838;2023-07-29T14:06:02;21.60;99.90
39371;DHT22;25099;51.946;4.838;2023-07-29T14:08:28;21.70;99.90
39371;DHT22;25099;51.946;4.838;2023-07-29T14:10:54;21.80;99.90
39371;DHT22;25099;51.946;4.838;2023-07-29T14:13:20;21.80;99.90
39371;DHT22;25099;51.946;4.838;2023-07-29T14:15:45;21.70;99.90
39371;DHT22;25099;51.946;4.838;2023-07-29T14:18:55;21.80;99.90
39371;DHT22;25099;51.946;4.838;2023-07-29T14:21:21;21.90;99.90
39371;DHT22;25099;51.946;4.838;2023-07-29T14:24:06;21.90;99.90
39371;DHT22;25099;51.946;4.838;2023-07-29T14:26:52;22.00;99.90
39371;DHT22;25099;51.946;4.838;2023-07-29T14:32:34;22.00;99.90
39371;DHT22;25099;51.946;4.838;2023-07-29T14:35:32;22.10;99.90
39371;DHT22;25099;51.946;4.838;2023-07-29T14:37:58;21.30;99.90
39371;DHT22;25099;51.946;4.838;2023-07-29T14:40:24;21.90;99.90
39371;DHT22;25099;51.946;4.838;2023-07-29T14:42:50;22.50;99.90
39371;DHT22;25099;51.946;4.838;2023-07-29T14:45:16;21.80;99.90
39371;DHT22;25099;51.946;4.838;2023-07-29T14:47:42;21.70;99.90
39371;DHT22;25099;51.946;4.838;2023-07-29T14:50:16;21.60;99.90
39371;DHT22;25099;51.946;4.838;2023-07-29T14:52:41;21.60;99.90
39371;DHT22;25099;51.946;4.838;2023-07-29T14:55:07;21.60;99.90
39371;DHT22;25099;51.946;4.838;2023-07-29T14:57:36;21.60;99.90
39371;DHT22;25099;51.946;4.838;2023-07-29T15:00:06;21.60;99.90
39371;DHT22;25099;51.946;4.838;2023-07-29T15:02:36;21.50;99.90
39371;DHT22;25099;51.946;4.838;2023-07-29T15:05:10;21.50;99.90
39371;DHT22;25099;51.946;4.838;2023-07-29T15:07:42;21.50;99.90
39371;DHT22;25099;51.946;4.838;2023-07-29T15:10:17;21.50;99.90
39371;DHT22;25099;51.946;4.838;2023-07-29T15:12:56;21.40;99.90
39371;DHT22;25099;51.946;4.838;2023-07-29T15:15:21;21.40;99.90
39371;DHT22;25099;51.946;4.838;2023-07-29T15:17:58;21.50;99.90
39371;DHT22;25099;51.946;4.838;2023-07-29T15:20:23;22.00;99.90
39371;DHT22;25099;51.946;4.838;2023-07-29T15:22:55;21.60;99.90
39371;DHT22;25099;51.946;4.838;2023-07-29T15:25:20;21.80;99.90
39371;DHT22;25099;51.946;4.838;2023-07-29T15:27:49;21.70;99.90
39371;DHT22;25099;51.946;4.838;2023-07-29T15:30:14;21.90;99.90
39371;DHT22;25099;51.946;4.838;2023-07-29T15:32:40;21.70;99.90
39371;DHT22;25099;51.946;4.838;2023-07-29T15:35:11;21.80;99.90
39371;DHT22;25099;51.946;4.838;2023-07-29T15:37:37;21.80;99.90
39371;DHT22;25099;51.946;4.838;2023-07-29T15:40:04;21.80;99.90
39371;DHT22;25099;51.946;4.838;2023-07-29T15:42:30;21.70;99.90
39371;DHT22;25099;51.946;4.838;2023-07-29T15:48:00;21.60;99.90
39371;DHT22;25099;51.946;4.838;2023-07-29T15:50:26;21.60;99.90
39371;DHT22;25099;51.946;4.838;2023-07-29T15:52:58;21.70;99.90
39371;DHT22;25099;51.946;4.838;2023-07-29T15:55:32;22.50;99.90
39371;DHT22;25099;51.946;4.838;2023-07-29T15:57:58;21.90;99.90
39371;DHT22;25099;51.946;4.838;2023-07-29T16:00:24;22.60;99.90
39371;DHT22;25099;51.946;4.838;2023-07-29T16:02:49;22.70;99.90
39371;DHT22;25099;51.946;4.838;2023-07-29T16:05:15;22.10;99.90